Time;durP1;ratioP1;P1;durP2;ratioP2;P2;SDS_P1;SDS_P2;PMS_P1;PMS_P2;Temp;Humidity;BMP_temperature;BMP_pressure;BME280_temperature;BME280_humidity;BME280_pressure;Samples;Min_cycle;Max_cycle;Signal;HPM_P1;HPM_P2
2023/12/30 00:00:52;;;;;;;21.42;4.32;;;10.00;99.90;;;;;;5034207;28;20044;-74
2023/12/30 00:03:17;;;;;;;20.98;2.95;;;9.90;99.90;;;;;;5034267;28;20029;-74
2023/12/30 00:05:43;;;;;;;13.10;3.58;;;10.00;99.90;;;;;;5036343;28;20048;-74
2023/12/30 00:08:09;;;;;;;21.02;3.75;;;10.10;99.90;;;;;;5036902;28;20617;-74
2023/12/30 00:10:34;;;;;;;14.35;3.33;;;10.10;99.90;;;;;;5033893;28;20131;-75
2023/12/30 00:13:02;;;;;;;15.10;3.40;;;10.10;99.90;;;;;;5033484;28;20025;-75
2023/12/30 00:15:28;;;;;;;16.48;3.17;;;10.10;99.90;;;;;;5035753;28;20017;-74
2023/12/30 00:17:53;;;;;;;24.02;4.30;;;10.10;99.90;;;;;;5032126;28;20471;-74
2023/12/30 00:20:20;;;;;;;21.88;3.15;;;10.00;99.90;;;;;;5038145;28;20034;-75
2023/12/30 00:22:45;;;;;;;20.15;3.47;;;10.00;99.90;;;;;;5034041;28;20471;-74
2023/12/30 00:25:11;;;;;;;10.38;2.42;;;10.00;99.90;;;;;;5038093;28;20032;-75
2023/12/30 00:27:37;;;;;;;16.67;3.63;;;10.00;99.90;;;;;;5038449;28;20040;-74
2023/12/30 00:30:04;;;;;;;20.95;3.55;;;10.00;99.90;;;;;;5035532;28;20033;-74
2023/12/30 00:32:29;;;;;;;19.17;3.58;;;10.00;99.90;;;;;;5039559;28;20021;-74
2023/12/30 00:34:55;;;;;;;20.33;3.70;;;10.00;99.90;;;;;;5036439;28;20043;-74
2023/12/30 00:37:21;;;;;;;21.35;3.70;;;10.00;99.90;;;;;;5032572;28;20593;-75
2023/12/30 00:39:47;;;;;;;22.40;3.53;;;9.90;99.90;;;;;;5035246;28;20521;-75
2023/12/30 00:42:13;;;;;;;18.35;3.42;;;10.00;99.90;;;;;;5036592;28;20025;-75
2023/12/30 00:44:38;;;;;;;21.38;3.97;;;9.90;99.90;;;;;;5039353;28;20052;-75
2023/12/30 00:47:04;;;;;;;17.52;4.03;;;10.00;99.90;;;;;;5034818;28;20064;-75
2023/12/30 00:49:30;;;;;;;19.30;3.97;;;9.90;99.90;;;;;;5035361;28;20029;-75
2023/12/30 00:51:56;;;;;;;21.38;3.45;;;9.90;99.90;;;;;;5038799;28;20559;-74
2023/12/30 00:54:21;;;;;;;20.75;3.45;;;9.90;99.90;;;;;;5031983;28;20425;-75
2023/12/30 00:56:47;;;;;;;21.88;4.75;;;9.90;99.90;;;;;;5033584;28;20021;-75
2023/12/30 00:59:13;;;;;;;20.55;3.88;;;10.00;99.90;;;;;;5035126;28;20720;-75
2023/12/30 01:01:39;;;;;;;17.85;4.13;;;10.10;99.90;;;;;;5035270;28;20022;-75
2023/12/30 01:04:04;;;;;;;20.90;3.95;;;10.00;99.90;;;;;;5035882;28;20035;-74
2023/12/30 01:06:30;;;;;;;22.52;3.83;;;10.00;99.90;;;;;;5037412;28;20063;-75
2023/12/30 01:08:56;;;;;;;15.43;3.10;;;10.00;99.90;;;;;;5036528;28;20462;-75
2023/12/30 01:11:21;;;;;;;15.68;3.40;;;10.00;99.90;;;;;;5031665;28;20052;-75
2023/12/30 01:13:47;;;;;;;17.42;3.13;;;10.10;99.90;;;;;;5032697;28;20096;-74
2023/12/30 01:16:14;;;;;;;21.30;4.15;;;10.20;99.90;;;;;;5032059;28;20065;-75
2023/12/30 01:18:40;;;;;;;24.08;3.25;;;10.10;99.90;;;;;;5036048;28;20014;-75
2023/12/30 01:21:06;;;;;;;14.43;3.60;;;10.20;99.90;;;;;;5034277;28;20052;-75
2023/12/30 01:23:31;;;;;;;15.40;2.90;;;10.10;99.90;;;;;;5035818;28;20025;-75
2023/12/30 01:25:57;;;;;;;21.15;3.10;;;10.10;99.90;;;;;;5035398;28;20040;-75
2023/12/30 01:28:23;;;;;;;14.15;3.28;;;10.20;99.90;;;;;;5035122;28;20021;-75
2023/12/30 01:30:49;;;;;;;21.85;3.45;;;10.30;99.90;;;;;;5035639;28;20458;-75
2023/12/30 01:33:14;;;;;;;15.15;3.45;;;10.20;99.90;;;;;;5033017;28;22645;-75
2023/12/30 01:35:40;;;;;;;14.45;3.03;;;10.20;99.90;;;;;;5034981;28;20478;-75
2023/12/30 01:38:06;;;;;;;13.25;3.17;;;10.20;99.90;;;;;;5037045;28;20099;-74
2023/12/30 01:40:31;;;;;;;13.90;3.45;;;10.20;99.90;;;;;;5034915;28;20025;-74
2023/12/30 01:42:57;;;;;;;19.80;4.07;;;10.20;99.90;;;;;;5036047;28;20079;-74
2023/12/30 01:45:23;;;;;;;29.20;4.30;;;10.20;99.90;;;;;;5037198;28;20021;-74
2023/12/30 01:47:50;;;;;;;14.00;3.38;;;10.30;99.90;;;;;;5032777;28;20106;-75
2023/12/30 01:50:16;;;;;;;13.93;3.63;;;10.30;99.90;;;;;;5032634;28;20743;-75
2023/12/30 01:52:44;;;;;;;9.50;2.72;;;10.30;99.90;;;;;;5033713;28;20104;-75
2023/12/30 01:55:10;;;;;;;17.05;3.25;;;10.30;99.90;;;;;;5032305;28;20171;-75
2023/12/30 01:57:36;;;;;;;19.35;3.10;;;10.40;99.90;;;;;;5034698;28;20021;-75
2023/12/30 02:00:04;;;;;;;18.15;3.70;;;10.30;99.90;;;;;;5039128;28;20352;-74
2023/12/30 02:02:29;;;;;;;13.32;2.67;;;10.40;99.90;;;;;;5033932;28;20026;-75
2023/12/30 02:04:55;;;;;;;18.98;2.85;;;10.40;99.90;;;;;;5034236;28;20037;-75
2023/12/30 02:07:22;;;;;;;17.40;3.03;;;10.40;99.90;;;;;;5032862;28;20044;-76
2023/12/30 02:09:49;;;;;;;14.15;2.90;;;10.40;99.90;;;;;;5036858;28;20024;-76
2023/12/30 02:12:14;;;;;;;17.23;3.63;;;10.40;99.90;;;;;;5032571;28;20025;-76
2023/12/30 02:14:40;;;;;;;12.95;2.67;;;10.30;99.90;;;;;;5032500;28;20025;-76
2023/12/30 02:17:06;;;;;;;16.95;3.50;;;10.30;99.90;;;;;;5033378;28;20474;-76
2023/12/30 02:19:33;;;;;;;20.25;3.25;;;10.30;99.90;;;;;;5036098;28;20466;-77
2023/12/30 02:21:59;;;;;;;16.50;2.63;;;10.30;99.90;;;;;;5037421;28;20042;-76
2023/12/30 02:24:25;;;;;;;19.70;3.47;;;10.30;99.90;;;;;;5036939;28;20028;-76
2023/12/30 02:26:50;;;;;;;10.02;2.42;;;10.30;99.90;;;;;;5038312;28;20504;-76
2023/12/30 02:29:16;;;;;;;16.42;3.22;;;10.20;99.90;;;;;;5034112;28;20152;-76
2023/12/30 02:31:47;;;;;;;18.75;3.50;;;10.20;99.90;;;;;;5031884;28;20032;-76
2023/12/30 02:34:15;;;;;;;15.50;2.80;;;10.20;99.90;;;;;;5032175;28;20025;-76
2023/12/30 02:36:42;;;;;;;14.43;2.97;;;10.20;99.90;;;;;;5034419;28;20062;-76
2023/12/30 02:39:08;;;;;;;15.40;3.50;;;10.20;99.90;;;;;;5033593;28;20021;-76
2023/12/30 02:41:34;;;;;;;13.82;2.60;;;10.20;99.90;;;;;;5034523;28;20039;-77
2023/12/30 02:44:01;;;;;;;21.45;3.63;;;10.10;99.90;;;;;;5036259;28;20079;-76
2023/12/30 02:46:29;;;;;;;20.77;3.22;;;10.10;99.90;;;;;;5034442;28;20037;-76
2023/12/30 02:48:55;;;;;;;19.20;3.45;;;10.10;99.90;;;;;;5035097;28;20155;-76
2023/12/30 02:51:20;;;;;;;16.77;2.72;;;10.20;99.90;;;;;;5033342;28;20135;-76
2023/12/30 02:53:47;;;;;;;17.38;2.97;;;10.10;99.90;;;;;;5033639;28;20048;-76
2023/12/30 02:56:21;;;;;;;14.40;2.65;;;10.20;99.90;;;;;;5031355;28;20076;-76
2023/12/30 02:58:58;;;;;;;11.27;2.70;;;10.10;99.90;;;;;;5035136;28;20017;-76
2023/12/30 03:01:28;;;;;;;11.93;2.60;;;10.10;99.90;;;;;;5035728;28;20140;-76
2023/12/30 03:04:00;;;;;;;15.05;2.42;;;10.00;99.90;;;;;;5034388;28;20017;-76
2023/12/30 03:06:27;;;;;;;11.10;2.83;;;10.00;99.90;;;;;;5035594;28;20041;-76
2023/12/30 03:08:54;;;;;;;18.13;3.40;;;9.90;99.90;;;;;;5034784;28;20549;-76
2023/12/30 03:11:20;;;;;;;20.70;3.40;;;10.00;99.90;;;;;;5031339;28;20025;-76
2023/12/30 03:13:46;;;;;;;16.30;3.78;;;9.90;99.90;;;;;;5033025;28;20037;-75
2023/12/30 03:16:15;;;;;;;17.75;2.65;;;9.90;99.90;;;;;;5034986;28;20666;-75
2023/12/30 03:18:41;;;;;;;22.13;2.78;;;9.90;99.90;;;;;;5036146;28;20025;-76
2023/12/30 03:21:09;;;;;;;20.85;3.30;;;9.90;99.90;;;;;;5033242;28;20393;-76
2023/12/30 03:23:36;;;;;;;19.70;2.72;;;9.80;99.90;;;;;;5033371;28;20029;-75
2023/12/30 03:26:03;;;;;;;20.92;2.83;;;9.80;99.90;;;;;;5033776;28;20073;-75
2023/12/30 03:28:29;;;;;;;18.92;3.03;;;9.90;99.90;;;;;;5030466;28;20025;-76
2023/12/30 03:30:54;;;;;;;17.45;2.75;;;9.80;99.90;;;;;;5032292;28;20041;-76
2023/12/30 03:33:20;;;;;;;14.95;2.70;;;9.80;99.90;;;;;;5034946;28;20533;-76
2023/12/30 03:35:46;;;;;;;17.05;2.97;;;9.70;99.90;;;;;;5034684;28;20025;-77
2023/12/30 03:38:12;;;;;;;18.38;3.17;;;9.70;99.90;;;;;;5038240;28;20188;-77
2023/12/30 03:40:38;;;;;;;17.17;3.08;;;9.70;99.90;;;;;;5037826;28;20039;-76
2023/12/30 03:43:03;;;;;;;20.48;2.78;;;9.80;99.90;;;;;;5036374;28;20068;-74
2023/12/30 03:45:29;;;;;;;17.13;3.25;;;9.70;99.90;;;;;;5032734;28;20056;-75
2023/12/30 03:47:55;;;;;;;17.67;3.08;;;9.70;99.90;;;;;;5032402;28;20039;-74
2023/12/30 03:50:21;;;;;;;20.17;3.25;;;9.70;99.90;;;;;;5030359;28;20029;-75
2023/12/30 03:52:47;;;;;;;21.33;3.17;;;9.70;99.90;;;;;;5032394;28;20040;-75
2023/12/30 03:55:13;;;;;;;19.65;3.78;;;9.70;99.90;;;;;;5033611;28;20116;-75
2023/12/30 03:57:39;;;;;;;22.38;4.00;;;9.70;99.90;;;;;;5031823;28;20108;-74
2023/12/30 04:00:05;;;;;;;17.25;2.78;;;9.70;99.90;;;;;;5031923;28;20092;-75
2023/12/30 04:02:31;;;;;;;22.98;4.07;;;9.70;99.90;;;;;;5038815;28;20090;-76
2023/12/30 04:04:56;;;;;;;24.05;3.90;;;9.70;99.90;;;;;;5039478;28;20033;-75
2023/12/30 04:07:22;;;;;;;18.50;3.83;;;9.70;99.90;;;;;;5035243;28;20128;-75
2023/12/30 04:09:48;;;;;;;22.63;4.45;;;9.70;99.90;;;;;;5037688;28;20104;-75
2023/12/30 04:12:13;;;;;;;16.17;3.15;;;9.70;99.90;;;;;;5038123;28;20025;-76
2023/12/30 04:14:40;;;;;;;23.75;3.33;;;9.80;99.90;;;;;;5037595;28;20448;-74
2023/12/30 04:17:05;;;;;;;17.67;3.28;;;9.70;99.90;;;;;;5034713;28;20500;-75
2023/12/30 04:19:31;;;;;;;23.40;3.95;;;9.70;99.90;;;;;;5040826;28;20017;-75
2023/12/30 04:21:57;;;;;;;21.65;3.60;;;9.70;99.90;;;;;;5035656;28;20382;-74
2023/12/30 04:24:23;;;;;;;16.88;3.88;;;9.60;99.90;;;;;;5036431;28;20021;-74
2023/12/30 04:26:50;;;;;;;22.75;4.47;;;9.60;99.90;;;;;;5036389;28;20137;-74
2023/12/30 04:29:16;;;;;;;14.90;2.72;;;9.60;99.90;;;;;;5036883;28;20034;-75
2023/12/30 04:31:42;;;;;;;21.35;2.92;;;9.60;99.90;;;;;;5037792;28;20033;-75
2023/12/30 04:34:07;;;;;;;25.05;4.03;;;9.70;99.90;;;;;;5039227;28;20086;-74
2023/12/30 04:36:33;;;;;;;20.02;2.80;;;9.70;99.90;;;;;;5036526;28;20098;-74
2023/12/30 04:38:59;;;;;;;16.67;3.40;;;9.70;99.90;;;;;;5035474;28;20025;-75
2023/12/30 04:41:25;;;;;;;21.80;3.67;;;9.70;99.90;;;;;;5034548;28;20033;-74
2023/12/30 04:43:50;;;;;;;32.83;4.55;;;9.70;99.90;;;;;;5038317;28;20074;-74
2023/12/30 04:46:17;;;;;;;26.77;4.53;;;9.50;99.90;;;;;;5032478;28;20037;-75
2023/12/30 04:48:42;;;;;;;20.40;4.18;;;9.50;99.90;;;;;;5036486;28;20025;-75
2023/12/30 04:51:09;;;;;;;19.88;4.28;;;9.60;99.90;;;;;;5035682;28;20035;-74
2023/12/30 04:53:35;;;;;;;21.63;3.70;;;9.60;99.90;;;;;;5037633;28;20410;-75
2023/12/30 04:56:00;;;;;;;17.98;3.50;;;9.60;99.90;;;;;;5034868;28;20028;-74
2023/12/30 04:58:26;;;;;;;20.15;3.75;;;9.60;99.90;;;;;;5035781;28;20100;-75
2023/12/30 05:00:52;;;;;;;20.80;3.58;;;9.60;99.90;;;;;;5036214;28;20029;-74
2023/12/30 05:03:17;;;;;;;21.77;3.20;;;9.50;99.90;;;;;;5038130;28;20036;-74
2023/12/30 05:05:43;;;;;;;16.20;2.67;;;9.50;99.90;;;;;;5034629;28;20037;-75
2023/12/30 05:08:09;;;;;;;16.27;3.13;;;9.50;99.90;;;;;;5037864;28;20563;-74
2023/12/30 05:10:35;;;;;;;16.00;3.28;;;9.50;99.90;;;;;;5036204;28;20021;-75
2023/12/30 05:13:01;;;;;;;14.40;3.30;;;9.40;99.90;;;;;;5034286;28;20029;-75
2023/12/30 05:15:27;;;;;;;22.83;3.50;;;9.50;99.90;;;;;;5035544;28;20021;-75
2023/12/30 05:17:55;;;;;;;16.65;3.08;;;9.50;99.90;;;;;;5039936;28;20496;-74
2023/12/30 05:20:21;;;;;;;16.88;2.92;;;9.50;99.90;;;;;;5035638;28;20025;-74
2023/12/30 05:22:47;;;;;;;22.67;4.15;;;9.50;99.90;;;;;;5033683;28;20166;-75
2023/12/30 05:25:13;;;;;;;19.50;2.72;;;9.50;99.90;;;;;;5037564;28;22855;-75
2023/12/30 05:27:39;;;;;;;22.67;3.97;;;9.40;99.90;;;;;;5038244;28;20044;-75
2023/12/30 05:30:07;;;;;;;19.17;3.20;;;9.40;99.90;;;;;;5031987;28;20414;-75
2023/12/30 05:32:33;;;;;;;16.55;2.97;;;9.40;99.90;;;;;;5033233;28;20021;-74
2023/12/30 05:34:59;;;;;;;17.10;3.10;;;9.40;99.90;;;;;;5033134;28;20057;-75
2023/12/30 05:37:25;;;;;;;18.55;2.75;;;9.40;99.90;;;;;;5035504;28;20147;-74
2023/12/30 05:39:51;;;;;;;15.38;2.83;;;9.40;99.90;;;;;;5039039;28;20379;-75
2023/12/30 05:42:16;;;;;;;22.15;3.40;;;9.40;99.90;;;;;;5038361;28;20032;-74
2023/12/30 05:44:42;;;;;;;18.75;2.60;;;9.40;99.90;;;;;;5038003;28;20479;-75
2023/12/30 05:47:08;;;;;;;20.42;3.97;;;9.40;99.90;;;;;;5034882;28;20051;-75
2023/12/30 05:49:36;;;;;;;12.57;2.42;;;9.40;99.90;;;;;;5036761;28;20102;-75
2023/12/30 05:52:02;;;;;;;19.20;2.80;;;9.30;99.90;;;;;;5035024;28;20040;-75
2023/12/30 05:54:28;;;;;;;17.77;2.80;;;9.40;99.90;;;;;;5036507;28;20453;-74
2023/12/30 05:56:54;;;;;;;18.27;3.08;;;9.40;99.90;;;;;;5036288;28;20033;-74
2023/12/30 05:59:20;;;;;;;20.33;3.13;;;9.30;99.90;;;;;;5035468;28;20095;-74
2023/12/30 06:01:46;;;;;;;15.90;2.78;;;9.10;99.90;;;;;;5033608;28;20553;-75
2023/12/30 06:04:13;;;;;;;20.60;3.22;;;9.20;99.90;;;;;;5033943;28;20364;-73
2023/12/30 06:06:39;;;;;;;19.48;2.53;;;9.20;99.90;;;;;;5034006;28;20226;-73
2023/12/30 06:09:05;;;;;;;15.70;7.07;;;9.30;99.90;;;;;;5036003;28;20021;-73
2023/12/30 06:11:32;;;;;;;12.90;2.83;;;9.30;99.90;;;;;;5036260;28;20112;-75
2023/12/30 06:13:57;;;;;;;13.90;2.28;;;9.30;99.90;;;;;;5038096;28;20018;-77
2023/12/30 06:16:23;;;;;;;12.88;2.60;;;9.20;99.90;;;;;;5038147;28;20090;-79
2023/12/30 06:18:49;;;;;;;18.45;3.03;;;9.20;99.90;;;;;;5037906;28;20100;-77
2023/12/30 06:21:14;;;;;;;17.42;2.63;;;9.30;99.90;;;;;;5036608;28;20500;-77
2023/12/30 06:23:40;;;;;;;17.55;3.15;;;9.30;99.90;;;;;;5034458;28;20023;-77
2023/12/30 06:26:06;;;;;;;16.65;3.90;;;9.10;99.90;;;;;;5033415;28;20048;-77
2023/12/30 06:28:31;;;;;;;14.23;3.17;;;9.20;99.90;;;;;;5036814;28;20432;-77
2023/12/30 06:30:57;;;;;;;17.10;2.75;;;9.20;99.90;;;;;;5035081;28;20009;-77
2023/12/30 06:33:23;;;;;;;18.33;3.20;;;9.20;99.90;;;;;;5039376;28;20113;-77
2023/12/30 06:35:49;;;;;;;11.93;2.60;;;9.20;99.90;;;;;;5032273;28;20031;-76
2023/12/30 06:38:15;;;;;;;20.30;3.95;;;9.20;99.90;;;;;;5036341;28;20036;-76
2023/12/30 06:40:41;;;;;;;21.20;3.42;;;9.20;99.90;;;;;;5032293;28;20430;-77
2023/12/30 06:43:08;;;;;;;18.45;3.47;;;9.20;99.90;;;;;;5028987;28;20474;-77
2023/12/30 06:45:34;;;;;;;15.30;2.90;;;9.10;99.90;;;;;;5031199;28;20032;-75
2023/12/30 06:48:00;;;;;;;13.60;3.28;;;9.20;99.90;;;;;;5032956;28;20033;-75
2023/12/30 06:50:26;;;;;;;18.70;3.13;;;9.20;99.90;;;;;;5036874;28;20028;-78
2023/12/30 06:52:55;;;;;;;18.42;3.40;;;9.20;99.90;;;;;;5031884;28;20474;-75
2023/12/30 06:55:21;;;;;;;13.63;3.13;;;9.30;99.90;;;;;;5032228;28;20025;-76
2023/12/30 06:57:47;;;;;;;16.33;3.38;;;9.30;99.90;;;;;;5030794;28;20074;-76
2023/12/30 07:00:13;;;;;;;20.45;3.78;;;9.30;99.90;;;;;;5031189;28;20025;-77
2023/12/30 07:02:41;;;;;;;20.25;4.15;;;9.30;99.90;;;;;;5030236;28;20014;-78
2023/12/30 07:05:08;;;;;;;22.58;3.83;;;9.30;99.90;;;;;;5036754;28;20022;-77
2023/12/30 07:07:34;;;;;;;22.13;3.75;;;9.30;99.90;;;;;;5031080;28;20091;-78
2023/12/30 07:10:00;;;;;;;17.95;3.95;;;9.20;99.90;;;;;;5032511;28;20099;-78
2023/12/30 07:12:25;;;;;;;15.82;3.60;;;9.30;99.90;;;;;;5027527;28;20022;-77
2023/12/30 07:14:51;;;;;;;17.42;3.72;;;9.30;99.90;;;;;;5027943;28;20037;-76
2023/12/30 07:17:17;;;;;;;17.63;3.55;;;9.20;99.90;;;;;;5029007;28;20026;-79
2023/12/30 07:19:43;;;;;;;18.83;3.70;;;9.30;99.90;;;;;;5034584;28;20080;-77
2023/12/30 07:22:08;;;;;;;23.15;3.13;;;9.30;99.90;;;;;;5031786;28;20067;-75
2023/12/30 07:24:34;;;;;;;23.42;3.80;;;9.30;99.90;;;;;;5036075;28;20050;-76
2023/12/30 07:27:00;;;;;;;23.63;3.58;;;9.30;99.90;;;;;;5035631;28;20075;-75
2023/12/30 07:29:25;;;;;;;22.92;4.28;;;9.30;99.90;;;;;;5032376;28;20025;-77
2023/12/30 07:31:51;;;;;;;18.38;3.85;;;9.30;99.90;;;;;;5031817;28;20082;-77
2023/12/30 07:34:17;;;;;;;27.85;4.43;;;9.30;99.90;;;;;;5036455;28;20052;-77
2023/12/30 07:36:43;;;;;;;22.17;3.78;;;9.30;99.90;;;;;;5034863;28;20347;-76
2023/12/30 07:39:09;;;;;;;19.50;4.03;;;9.20;99.90;;;;;;5038072;28;20111;-77
2023/12/30 07:41:37;;;;;;;20.55;4.65;;;9.20;99.90;;;;;;5036535;28;20104;-76
2023/12/30 07:44:03;;;;;;;24.02;4.57;;;9.30;99.90;;;;;;5040587;28;20025;-76
2023/12/30 07:46:28;;;;;;;18.23;4.18;;;9.20;99.90;;;;;;5037961;28;20056;-76
2023/12/30 07:48:54;;;;;;;29.45;5.15;;;9.30;99.90;;;;;;5032716;28;20029;-75
2023/12/30 07:51:20;;;;;;;19.92;3.55;;;9.20;99.90;;;;;;5035425;28;20379;-76
2023/12/30 07:53:46;;;;;;;28.20;4.93;;;9.30;99.90;;;;;;5035380;28;20053;-76
2023/12/30 07:56:11;;;;;;;20.83;3.92;;;9.30;99.90;;;;;;5034864;28;20478;-76
2023/12/30 07:58:37;;;;;;;24.55;5.25;;;9.30;99.90;;;;;;5033345;28;20562;-76
2023/12/30 08:01:03;;;;;;;21.60;4.35;;;9.30;99.90;;;;;;5037330;28;20024;-76
2023/12/30 08:03:29;;;;;;;26.70;4.53;;;9.30;99.90;;;;;;5037327;28;20519;-76
2023/12/30 08:05:55;;;;;;;17.67;4.13;;;9.40;99.90;;;;;;5037177;28;20025;-76
2023/12/30 08:08:21;;;;;;;26.20;4.22;;;9.40;99.90;;;;;;5034205;28;20116;-76
2023/12/30 08:10:46;;;;;;;26.10;4.13;;;9.40;99.90;;;;;;5035178;28;20498;-76
2023/12/30 08:13:12;;;;;;;24.58;4.10;;;9.40;99.90;;;;;;5040834;28;20033;-77
2023/12/30 08:15:38;;;;;;;19.27;4.20;;;9.50;99.90;;;;;;5038249;28;20036;-76
2023/12/30 08:18:04;;;;;;;23.95;3.40;;;9.50;99.90;;;;;;5036278;28;20029;-76
2023/12/30 08:20:29;;;;;;;22.23;4.28;;;9.50;99.90;;;;;;5035607;28;20417;-76
2023/12/30 08:22:56;;;;;;;20.67;3.38;;;9.50;99.90;;;;;;5033146;28;20036;-76
2023/12/30 08:25:22;;;;;;;21.83;3.60;;;9.50;99.90;;;;;;5033569;28;20497;-76
2023/12/30 08:27:47;;;;;;;23.65;4.05;;;9.50;99.90;;;;;;5034864;28;20064;-76
2023/12/30 08:30:13;;;;;;;21.35;4.05;;;9.50;99.90;;;;;;5036209;28;20029;-77
2023/12/30 08:32:39;;;;;;;27.90;4.78;;;9.50;99.90;;;;;;5040061;28;20067;-76
2023/12/30 08:35:07;;;;;;;23.90;4.85;;;9.50;99.90;;;;;;5037537;28;20036;-76
2023/12/30 08:37:34;;;;;;;16.60;4.03;;;9.40;99.90;;;;;;5037437;28;20112;-76
2023/12/30 08:40:00;;;;;;;22.33;4.45;;;9.40;99.90;;;;;;5034624;28;20029;-76
2023/12/30 08:42:34;;;;;;;14.90;4.47;;;9.50;99.90;;;;;;5032519;28;20078;-76
2023/12/30 08:44:59;;;;;;;19.45;4.50;;;9.50;99.90;;;;;;5035073;28;20394;-76
2023/12/30 08:47:25;;;;;;;19.73;5.18;;;9.60;99.90;;;;;;5032419;28;20033;-84
2023/12/30 08:49:51;;;;;;;26.85;4.68;;;9.60;99.90;;;;;;5034653;28;20538;-76
2023/12/30 08:52:16;;;;;;;27.17;5.03;;;9.50;99.90;;;;;;5036957;28;20107;-76
2023/12/30 08:54:42;;;;;;;21.75;5.13;;;9.50;99.90;;;;;;5034572;28;20414;-76
2023/12/30 08:57:08;;;;;;;20.38;5.18;;;9.50;99.90;;;;;;5035320;28;20028;-76
2023/12/30 08:59:33;;;;;;;23.85;5.57;;;9.40;99.90;;;;;;5032634;28;20057;-76
2023/12/30 09:01:59;;;;;;;17.70;4.65;;;9.50;99.90;;;;;;5032991;28;20478;-76
2023/12/30 09:04:24;;;;;;;23.30;5.45;;;9.50;99.90;;;;;;5035761;28;20422;-76
2023/12/30 09:06:52;;;;;;;24.17;6.20;;;9.50;99.90;;;;;;5031852;28;20511;-76
2023/12/30 09:09:17;;;;;;;31.90;5.28;;;9.50;99.90;;;;;;5031138;28;20029;-76
2023/12/30 09:11:43;;;;;;;25.17;5.70;;;9.60;99.90;;;;;;5034293;28;20075;-76
2023/12/30 09:14:09;;;;;;;27.45;6.18;;;9.70;99.90;;;;;;5034766;28;20083;-76
2023/12/30 09:16:34;;;;;;;26.40;6.75;;;9.70;99.90;;;;;;5033067;28;20078;-75
2023/12/30 09:19:00;;;;;;;24.85;5.20;;;9.70;99.90;;;;;;5033730;28;20068;-76
2023/12/30 09:21:26;;;;;;;26.13;5.32;;;9.80;99.90;;;;;;5034624;28;20511;-76
2023/12/30 09:23:52;;;;;;;29.95;6.78;;;9.80;99.90;;;;;;5035823;28;20032;-76
2023/12/30 09:26:17;;;;;;;24.63;6.47;;;9.70;99.90;;;;;;5034053;28;20505;-76
2023/12/30 09:28:43;;;;;;;26.52;6.03;;;9.70;99.90;;;;;;5035994;28;22755;-76
2023/12/30 09:31:10;;;;;;;21.85;6.32;;;9.80;99.90;;;;;;5032632;28;20501;-76
2023/12/30 09:33:36;;;;;;;26.13;5.88;;;9.80;99.90;;;;;;5035255;28;20122;-76
2023/12/30 09:36:01;;;;;;;22.45;6.68;;;9.90;99.90;;;;;;5034558;28;20494;-76
2023/12/30 09:38:27;;;;;;;22.58;6.35;;;10.00;99.90;;;;;;5034572;28;20036;-76
2023/12/30 09:40:54;;;;;;;20.15;5.18;;;10.00;99.90;;;;;;5035147;28;20497;-73
2023/12/30 09:43:25;;;;;;;22.38;5.90;;;10.00;99.90;;;;;;5033305;28;20068;-75
2023/12/30 09:45:52;;;;;;;26.17;6.65;;;10.10;99.90;;;;;;5026918;28;20029;-75
2023/12/30 09:48:27;;;;;;;26.27;6.80;;;10.10;99.90;;;;;;5032783;28;20126;-75
2023/12/30 09:50:55;;;;;;;22.85;6.25;;;10.10;99.90;;;;;;5029863;28;20030;-75
2023/12/30 09:53:24;;;;;;;22.50;7.25;;;10.10;99.90;;;;;;5032842;28;20117;-75
2023/12/30 09:55:51;;;;;;;23.80;6.22;;;10.10;99.90;;;;;;5033621;28;20030;-80
2023/12/30 09:58:18;;;;;;;25.75;6.50;;;10.20;99.90;;;;;;5036024;28;20111;-76
2023/12/30 10:00:44;;;;;;;31.98;7.28;;;10.20;99.90;;;;;;5031714;28;20029;-76
2023/12/30 10:03:10;;;;;;;30.17;7.35;;;10.20;99.90;;;;;;5034904;28;20020;-76
2023/12/30 10:05:36;;;;;;;23.35;6.10;;;10.10;99.90;;;;;;5031742;28;20112;-76
2023/12/30 10:08:03;;;;;;;35.53;7.00;;;10.20;99.90;;;;;;5032052;28;20108;-76
2023/12/30 10:10:43;;;;;;;28.90;5.90;;;10.10;99.90;;;;;;5033056;28;20017;-76
2023/12/30 10:13:13;;;;;;;25.83;5.93;;;10.20;99.90;;;;;;5032193;28;20051;-76
2023/12/30 10:15:40;;;;;;;35.75;7.10;;;10.20;99.90;;;;;;5028794;28;20108;-75
2023/12/30 10:18:09;;;;;;;20.90;5.25;;;10.20;99.90;;;;;;5031107;28;20024;-77
2023/12/30 10:20:41;;;;;;;21.52;5.68;;;10.30;99.90;;;;;;5035252;28;20033;-78
2023/12/30 10:23:07;;;;;;;25.38;5.78;;;10.30;99.90;;;;;;5035151;28;20021;-78
2023/12/30 10:25:34;;;;;;;26.00;5.95;;;10.30;99.90;;;;;;5031477;28;20026;-76
2023/12/30 10:28:00;;;;;;;24.95;5.05;;;10.30;99.90;;;;;;5033232;28;20498;-76
2023/12/30 10:30:28;;;;;;;20.40;5.28;;;10.30;99.90;;;;;;5033578;28;20024;-76
2023/12/30 10:33:05;;;;;;;21.90;5.10;;;10.30;99.90;;;;;;5032733;28;20060;-76
2023/12/30 10:35:31;;;;;;;22.13;7.70;;;10.40;99.90;;;;;;5037042;28;20744;-76
2023/12/30 10:37:57;;;;;;;21.52;5.72;;;10.40;99.90;;;;;;5035026;28;20040;-76
2023/12/30 10:40:23;;;;;;;22.80;5.88;;;10.40;99.90;;;;;;5035462;28;20474;-77
2023/12/30 10:42:48;;;;;;;21.92;5.70;;;10.50;99.90;;;;;;5033316;28;20036;-76
2023/12/30 10:45:14;;;;;;;24.50;6.53;;;10.50;99.90;;;;;;5031135;28;20095;-76
2023/12/30 10:47:40;;;;;;;28.25;6.05;;;10.50;99.90;;;;;;5035004;28;20071;-75
2023/12/30 10:50:09;;;;;;;26.33;5.65;;;10.60;99.90;;;;;;5037221;28;20115;-75
2023/12/30 10:52:39;;;;;;;23.75;5.63;;;10.70;99.90;;;;;;5033934;28;20032;-77
2023/12/30 10:55:15;;;;;;;25.60;6.05;;;10.60;99.90;;;;;;5030362;28;20021;-76
2023/12/30 10:57:49;;;;;;;25.15;5.40;;;10.60;99.90;;;;;;5033850;28;20096;-77
2023/12/30 11:00:21;;;;;;;16.48;4.97;;;10.80;99.90;;;;;;5030316;28;20024;-77
2023/12/30 11:02:47;;;;;;;24.13;5.72;;;10.80;99.90;;;;;;5030798;28;20111;-77
2023/12/30 11:05:38;;;;;;;22.15;6.35;;;10.80;99.90;;;;;;5036109;28;20473;-76
2023/12/30 11:08:04;;;;;;;25.33;5.18;;;10.90;99.90;;;;;;5032173;28;20049;-76
2023/12/30 11:10:32;;;;;;;24.50;5.38;;;11.00;99.90;;;;;;5030838;28;20097;-76
2023/12/30 11:12:59;;;;;;;21.65;5.82;;;10.90;99.90;;;;;;5036042;28;20014;-77
2023/12/30 11:15:29;;;;;;;15.75;4.55;;;11.00;99.90;;;;;;5030295;28;20033;-76
2023/12/30 11:17:59;;;;;;;21.70;5.15;;;11.00;99.90;;;;;;5032440;28;20470;-76
2023/12/30 11:20:32;;;;;;;22.75;5.57;;;11.00;99.90;;;;;;5034729;28;20029;-76
2023/12/30 11:23:02;;;;;;;25.77;5.13;;;11.00;99.90;;;;;;5033001;28;20016;-77
2023/12/30 11:25:34;;;;;;;25.17;4.97;;;11.00;99.90;;;;;;5033254;28;20496;-76
2023/12/30 11:28:17;;;;;;;20.77;5.20;;;11.00;99.90;;;;;;5031889;28;20033;-76
2023/12/30 11:30:45;;;;;;;20.52;5.78;;;10.90;99.90;;;;;;5032739;28;20382;-76
2023/12/30 11:33:13;;;;;;;25.10;5.00;;;10.90;99.90;;;;;;5033942;28;20044;-76
2023/12/30 11:35:39;;;;;;;24.45;4.57;;;10.90;99.90;;;;;;5033732;28;20037;-76
2023/12/30 11:38:09;;;;;;;18.88;4.25;;;10.90;99.90;;;;;;5032256;28;20536;-74
2023/12/30 11:40:41;;;;;;;19.20;4.72;;;10.90;99.90;;;;;;5033614;28;20035;-77
2023/12/30 11:43:10;;;;;;;22.13;4.53;;;10.90;99.90;;;;;;5031929;28;20021;-75
2023/12/30 11:45:37;;;;;;;16.38;4.50;;;10.90;99.90;;;;;;5033908;28;20061;-77
2023/12/30 11:48:03;;;;;;;18.92;4.35;;;11.00;99.90;;;;;;5030553;28;20018;-75
2023/12/30 11:50:29;;;;;;;19.00;4.88;;;11.00;99.90;;;;;;5034149;28;20954;-75
2023/12/30 11:52:56;;;;;;;16.40;4.38;;;11.10;99.90;;;;;;5032278;28;20511;-77
2023/12/30 11:55:24;;;;;;;16.67;3.50;;;11.00;99.90;;;;;;5035388;28;20072;-76
2023/12/30 11:57:51;;;;;;;15.88;4.32;;;11.10;99.90;;;;;;5033584;28;20022;-76
2023/12/30 12:00:17;;;;;;;17.33;4.70;;;11.10;99.90;;;;;;5032613;28;20056;-76
2023/12/30 12:02:43;;;;;;;19.73;3.85;;;11.20;99.90;;;;;;5032295;28;20033;-76
2023/12/30 12:05:08;;;;;;;51.83;23.27;;;11.10;99.90;;;;;;5032150;28;20495;-76
2023/12/30 12:07:34;;;;;;;17.98;8.00;;;11.10;99.90;;;;;;5030984;28;20044;-75
2023/12/30 12:10:00;;;;;;;20.42;5.65;;;11.10;99.90;;;;;;5033284;28;20048;-76
2023/12/30 12:12:35;;;;;;;22.85;3.90;;;11.10;99.90;;;;;;5032666;28;20036;-77
2023/12/30 12:15:01;;;;;;;13.55;3.78;;;11.10;99.90;;;;;;5030566;28;20514;-77
2023/12/30 12:17:27;;;;;;;16.33;3.40;;;11.20;99.90;;;;;;5027078;28;20120;-77
2023/12/30 12:19:53;;;;;;;15.95;4.35;;;11.30;99.90;;;;;;5027315;28;20053;-77
2023/12/30 12:22:20;;;;;;;13.82;3.65;;;11.30;99.90;;;;;;5029709;28;20057;-77
2023/12/30 12:24:45;;;;;;;13.93;3.65;;;11.30;99.90;;;;;;5029764;28;20017;-77
2023/12/30 12:27:17;;;;;;;16.92;3.28;;;11.40;99.90;;;;;;5034349;28;20090;-76
2023/12/30 12:29:48;;;;;;;19.17;3.28;;;11.40;99.90;;;;;;5030146;28;20031;-77
2023/12/30 12:32:15;;;;;;;10.13;2.63;;;11.40;99.90;;;;;;5031626;28;20107;-77
2023/12/30 12:34:41;;;;;;;14.38;2.85;;;11.40;99.90;;;;;;5031128;28;20116;-77
2023/12/30 12:37:14;;;;;;;16.73;3.75;;;11.50;99.90;;;;;;5031911;28;20051;-77
2023/12/30 12:39:44;;;;;;;12.43;3.42;;;11.50;99.90;;;;;;5033042;28;20429;-77